Cacoal, Brazil
Current Conditions -  °F | °C
As of 12:00 PM on Tuesday 21 Oct 2014 (Local Time) from SBVH Reporting Station
Scattered Clouds Scattered Clouds  
Wind Chill: 90°   Ceiling: Unl
Heat Index: 93°   Visibility: 6mi
Dew Point: 68°   Wind: 5mph
Humidity: 49%   Direction: 170°S
Pressure: 30"   Gusts: NA
Location:  11.44°S, 61.45°W
Report Text: SBVH 211600Z 17004KT 9999 SCT027 FEW030TCU 32/20 Q1016
Loading
Personal Weather Stations






























Interactive Weather Map
Tropical Storm Tracking
New forecast layout! Learn more

10-Day Weather Forecast

Advertisements
Track Severe Weather on mobile